Orbital elements of ARIANE 44L DEB
| Launched | 28 October 1991 |
| Flight ended | – |
| Launch site | Europe's Spaceport, Kourou, French Guiana |
| Owner | France |
| NORAD ID | 28576 |
| Date fetched |
Epoch osculation |
Inc. [°] |
Ecc. | RA asc node [hr] |
Arg Peri. [°] |
Mean anom [°] |
Mean motion [rev/day] |
Abs. mag |
| Date fetched |
Epoch osculation |
Inc. [°] |
Ecc. | RA asc node [hr] |
Arg Peri. [°] |
Mean anom [°] |
Mean motion [rev/day] |
Abs. mag |
| 2026 May 08 17:57 | 2026 May 05 10:34:22 | 6.9543 | 0.66088 | 23.6319 | 62.5605 | 44.0815 | 2.83942 | – |
| 2026 May 07 17:58 | 2026 May 05 10:34:22 | 6.9543 | 0.66088 | 23.6319 | 62.5605 | 44.0815 | 2.83942 | – |
| 2026 May 06 17:57 | 2026 May 05 10:34:22 | 6.9543 | 0.66088 | 23.6319 | 62.5605 | 44.0815 | 2.83942 | – |
| 2026 May 05 17:57 | 2026 May 05 10:34:22 | 6.9543 | 0.66088 | 23.6319 | 62.5605 | 44.0815 | 2.83942 | – |
| 2026 May 04 17:57 | 2026 Apr 30 12:23:55 | 6.9513 | 0.66082 | 23.7832 | 57.9705 | 44.0815 | 2.83942 | – |
| 2026 May 03 17:57 | 2026 Apr 30 12:23:55 | 6.9513 | 0.66082 | 23.7832 | 57.9705 | 44.0815 | 2.83942 | – |
| 2026 May 02 17:57 | 2026 Apr 30 12:23:55 | 6.9513 | 0.66082 | 23.7832 | 57.9705 | 44.0815 | 2.83942 | – |
| 2026 May 01 17:56 | 2026 Apr 30 12:23:55 | 6.9513 | 0.66082 | 23.7832 | 57.9705 | 44.0815 | 2.83942 | – |
| 2026 Apr 30 17:56 | 2026 Apr 30 12:23:55 | 6.9513 | 0.66082 | 23.7832 | 57.9705 | 44.0815 | 2.83942 | – |
| 2026 Apr 29 17:57 | 2026 Apr 24 01:20:38 | 6.9464 | 0.66072 | 23.9824 | 51.9442 | 44.0815 | 2.83942 | – |
| 2026 Apr 28 17:56 | 2026 Apr 24 01:20:38 | 6.9464 | 0.66072 | 23.9824 | 51.9442 | 44.0815 | 2.83942 | – |
| 2026 Apr 27 17:58 | 2026 Apr 24 01:20:38 | 6.9464 | 0.66072 | 23.9824 | 51.9442 | 44.0815 | 2.83942 | – |
| 2026 Apr 26 17:58 | 2026 Apr 24 01:20:38 | 6.9464 | 0.66072 | 23.9824 | 51.9442 | 44.0815 | 2.83942 | – |
| 2026 Apr 25 17:58 | 2026 Apr 24 01:20:38 | 6.9464 | 0.66072 | 23.9824 | 51.9442 | 44.0815 | 2.83942 | – |
| 2026 Apr 24 17:59 | 2026 Apr 24 01:20:38 | 6.9464 | 0.66072 | 23.9824 | 51.9442 | 44.0815 | 2.83942 | – |
| 2026 Apr 23 17:57 | 2026 Apr 19 09:25:43 | 6.9423 | 0.66066 | 0.1261 | 47.5958 | 44.0815 | 2.83942 | – |
| 2026 Apr 22 17:57 | 2026 Apr 19 09:25:43 | 6.9423 | 0.66066 | 0.1261 | 47.5958 | 44.0815 | 2.83942 | – |
| 2026 Apr 21 17:57 | 2026 Apr 19 09:25:43 | 6.9423 | 0.66066 | 0.1261 | 47.5958 | 44.0815 | 2.83942 | – |
| 2026 Apr 20 17:57 | 2026 Apr 19 09:25:43 | 6.9423 | 0.66066 | 0.1261 | 47.5958 | 44.0815 | 2.83942 | – |
| 2026 Apr 19 17:58 | 2026 Apr 19 09:25:43 | 6.9423 | 0.66066 | 0.1261 | 47.5958 | 44.0815 | 2.83942 | – |
| 2026 Apr 18 17:56 | 2026 Apr 13 02:42:38 | 6.9366 | 0.66054 | 0.3199 | 41.7375 | 44.0815 | 2.83942 | – |
| 2026 Apr 16 17:57 | 2026 Apr 13 02:42:38 | 6.9366 | 0.66054 | 0.3199 | 41.7375 | 44.0815 | 2.83942 | – |
| 2026 Apr 14 17:57 | 2026 Apr 13 02:42:38 | 6.9366 | 0.66054 | 0.3199 | 41.7375 | 44.0815 | 2.83942 | – |
| 2026 Apr 13 17:57 | 2026 Apr 13 02:42:38 | 6.9366 | 0.66054 | 0.3199 | 41.7375 | 44.0815 | 2.83942 | – |
| 2026 Apr 12 17:57 | 2026 Apr 08 10:17:01 | 6.9314 | 0.66046 | 0.4649 | 37.3632 | 44.0815 | 2.83942 | – |
| 2026 Apr 11 17:57 | 2026 Apr 08 10:17:01 | 6.9314 | 0.66046 | 0.4649 | 37.3632 | 44.0815 | 2.83942 | – |